Weather reports worldwide

Advertisment
San Vicente, Spain (8017): temperature & dewpoint: 22.03.2020 22:00:00 - 28.03.2020 22:00:00 (CET)San Vicente, Spain (8017): wind speed & gusts: 22.03.2020 22:00:00 - 28.03.2020 22:00:00 (CET)San Vicente, Spain (8017): wind direction: 22.03.2020 22:00:00 - 28.03.2020 22:00:00 (CET)San Vicente, Spain (8017): reduced air pressure: 22.03.2020 22:00:00 - 28.03.2020 22:00:00 (CET)San Vicente, Spain (8017): precipitation: 22.03.2020 22:00:00 - 28.03.2020 22:00:00 (CET)
Date & Time tt [°C] td [°C] ff [km/h] ff [kn] fx [km/h] fx [kn] dd ppp [hPa] rr [mm]
28.03.2020 22:00:00 - - - - - - - - -
28.03.2020 21:00:00 11,2 8,1 5 3 11 6 SSE 1021,7 0,0
28.03.2020 20:00:00 12,2 8,1 6 3 14 8 E 1020,6 0,0
28.03.2020 19:00:00 13,2 7,8 10 6 16 9 ENE 1020,2 -
28.03.2020 18:00:00 14,0 8,8 7 4 12 7 ENE 1019,8 0,0
28.03.2020 17:00:00 14,4 9,2 6 4 11 6 NE 1019,4 0,0
28.03.2020 16:00:00 14,5 8,4 6 3 13 7 NE 1019,5 0,0
28.03.2020 15:00:00 13,5 7,3 8 4 13 7 NNE 1019,5 0,0
28.03.2020 14:00:00 13,2 6,2 6 3 10 5 NE 1019,9 0,0
28.03.2020 13:00:00 12,2 5,8 8 4 13 7 NNE 1019,9 -
28.03.2020 12:00:00 11,4 6,1 5 3 12 6 N 1020,1 0,0
28.03.2020 11:00:00 11,0 5,5 4 2 12 7 N 1020,1 0,0
28.03.2020 10:00:00 10,7 5,3 1 1 13 7 NW 1019,9 0,0
28.03.2020 09:00:00 7,4 4,8 9 5 14 8 S 1019,2 0,0
28.03.2020 08:00:00 4,8 3,4 11 6 16 8 SSW 1018,8 0,0
28.03.2020 07:00:00 3,9 2,7 11 6 16 8 SSW 1018,3 -
28.03.2020 06:00:00 4,1 2,9 10 6 14 8 SSW 1017,9 0,0
28.03.2020 05:00:00 4,3 3,0 10 5 24 13 SSW 1017,5 0,0
28.03.2020 04:00:00 4,1 3,0 10 6 16 9 SSW 1017,3 0,0
28.03.2020 03:00:00 4,4 3,0 10 5 15 8 SSW 1017,3 0,0
28.03.2020 02:00:00 4,7 3,2 12 6 15 8 SSW 1017,3 0,0
28.03.2020 01:00:00 5,2 3,6 12 7 14 8 SSW 1017,2 -
28.03.2020 00:00:00 6,3 4,3 9 5 14 8 SSW 1017,3 0,0
27.03.2020 23:00:00 7,9 4,8 6 3 11 6 SSE 1017,3 0,0
27.03.2020 22:00:00 9,1 4,1 5 3 13 7 SE 1017,0 0,0
27.03.2020 21:00:00 9,9 4,1 9 5 29 16 ESE 1016,6 0,0
27.03.2020 20:00:00 10,6 4,1 14 7 38 20 E 1015,7 0,0
27.03.2020 19:00:00 11,6 5,3 30 16 42 23 ENE 1015,0 -
27.03.2020 18:00:00 11,7 5,3 31 17 41 22 ENE 1014,5 0,0
27.03.2020 17:00:00 11,7 5,3 23 12 37 20 ENE 1014,4 0,0
27.03.2020 16:00:00 11,8 4,8 27 15 39 21 ENE 1014,6 0,0
27.03.2020 15:00:00 11,5 4,6 24 13 32 18 ENE 1014,7 0,0
27.03.2020 14:00:00 12,2 4,1 20 11 33 18 ENE 1015,2 0,0
27.03.2020 13:00:00 12,1 2,9 15 8 26 14 ENE 1015,5 -
27.03.2020 12:00:00 11,7 1,9 14 8 26 14 ENE 1015,9 0,0
27.03.2020 11:00:00 12,0 1,7 9 5 18 10 ENE 1016,1 0,0
27.03.2020 10:00:00 11,0 2,3 5 3 11 6 E 1015,9 0,0
27.03.2020 09:00:00 6,7 2,5 8 5 14 8 SSW 1015,9 0,0
27.03.2020 08:00:00 4,3 1,9 11 6 16 8 SSW 1015,8 0,0
27.03.2020 07:00:00 3,5 1,3 11 6 14 8 SSW 1015,4 -
27.03.2020 06:00:00 3,6 1,5 11 6 15 8 SSW 1015,1 0,0
27.03.2020 05:00:00 4,1 1,9 12 7 15 8 SSW 1015,0 0,0
27.03.2020 04:00:00 4,5 1,7 10 6 14 7 SSW 1014,7 0,0
27.03.2020 03:00:00 5,4 1,5 10 5 13 7 SSW 1014,9 0,0
27.03.2020 02:00:00 6,6 0,6 8 5 13 7 SSW 1015,1 0,0
27.03.2020 01:00:00 7,7 0,4 8 4 11 6 SSW 1015,2 -
27.03.2020 00:00:00 9,2 1,3 2 1 16 8 SE 1015,3 0,0
26.03.2020 23:00:00 9,6 0,4 9 5 21 11 NE 1015,5 0,0
26.03.2020 22:00:00 9,7 0,6 16 9 24 13 NNE 1015,5 0,0
26.03.2020 21:00:00 9,8 0,9 14 7 27 15 NNE 1015,6 0,0
26.03.2020 20:00:00 9,9 1,3 18 10 31 17 NNE 1015,0 0,0
26.03.2020 19:00:00 10,2 2,3 24 13 34 18 NNE 1014,7 -
26.03.2020 18:00:00 10,8 2,9 25 13 32 17 N 1014,2 0,0
26.03.2020 17:00:00 11,0 3,6 20 11 40 22 N 1014,0 0,0
26.03.2020 16:00:00 11,6 4,3 23 12 37 20 WNW 1013,8 0,0
26.03.2020 15:00:00 11,8 3,6 21 11 35 19 WNW 1014,2 0,0
26.03.2020 14:00:00 12,0 3,4 18 10 31 17 WNW 1014,8 0,0
26.03.2020 13:00:00 11,6 4,6 19 11 33 18 WNW 1015,4 -
26.03.2020 12:00:00 12,9 4,6 20 11 36 19 WNW 1015,8 0,0
26.03.2020 11:00:00 11,4 3,2 23 12 35 19 WNW 1015,9 0,0
26.03.2020 10:00:00 10,3 3,6 16 9 29 15 W 1015,9 0,0
26.03.2020 09:00:00 9,6 4,5 7 4 21 12 W 1015,8 0,0
26.03.2020 08:00:00 8,8 4,3 9 5 21 12 W 1015,6 0,0
26.03.2020 07:00:00 7,5 4,6 8 4 18 10 W 1015,2 -
26.03.2020 06:00:00 6,1 4,3 4 2 12 6 SW 1015,3 0,0
26.03.2020 05:00:00 6,6 4,6 3 2 13 7 WSW 1015,5 0,0
26.03.2020 04:00:00 7,7 5,0 9 5 14 8 SW 1015,9 0,0
26.03.2020 03:00:00 8,0 5,5 7 4 11 6 SSW 1016,3 0,0
26.03.2020 02:00:00 8,7 5,0 6 3 10 5 SW 1016,8 0,0
26.03.2020 01:00:00 8,9 4,5 5 3 10 5 SSW 1016,9 -
26.03.2020 00:00:00 9,6 3,8 6 3 12 7 N 1017,2 0,0
25.03.2020 23:00:00 9,8 3,9 7 4 16 9 N 1017,2 0,0
25.03.2020 22:00:00 10,5 4,5 10 5 22 12 NNE 1017,5 0,0
25.03.2020 21:00:00 11,1 4,5 14 7 20 11 N 1016,8 0,0
25.03.2020 20:00:00 11,3 5,6 6 3 13 7 N 1016,2 0,0
25.03.2020 19:00:00 12,0 6,2 8 4 17 9 NNE 1016,3 -
25.03.2020 18:00:00 12,4 6,7 11 6 15 8 N 1016,0 0,0
25.03.2020 17:00:00 12,8 7,7 8 5 14 8 N 1016,2 0,0
25.03.2020 16:00:00 13,9 9,3 11 6 16 9 NNE 1016,1 0,0
25.03.2020 15:00:00 14,3 10,2 10 5 16 9 NW 1016,3 0,0
25.03.2020 14:00:00 14,0 10,2 6 3 17 9 NW 1016,5 0,0
25.03.2020 13:00:00 13,3 10,6 5 3 19 11 N 1016,8 -
25.03.2020 12:00:00 13,6 11,1 11 6 19 11 NW 1016,8 0,0
25.03.2020 11:00:00 13,3 10,5 10 5 18 10 WNW 1016,7 0,0
25.03.2020 10:00:00 12,4 9,0 10 6 15 8 NW 1016,6 0,0
25.03.2020 09:00:00 9,9 7,8 5 3 14 8 SW 1016,8 0,0
25.03.2020 08:00:00 7,3 6,2 11 6 14 7 SSW 1016,7 0,0
25.03.2020 07:00:00 6,8 5,8 10 5 14 7 SSW 1016,2 -
25.03.2020 06:00:00 7,2 6,2 8 4 15 8 SW 1015,9 0,0
25.03.2020 05:00:00 7,1 6,2 9 5 14 7 SW 1015,8 0,0
25.03.2020 04:00:00 7,3 6,4 13 7 15 8 SW 1015,8 0,0
25.03.2020 03:00:00 7,6 6,7 11 6 13 7 SSW 1016,4 0,0
25.03.2020 02:00:00 8,2 7,3 10 5 15 8 SSW 1016,6 0,0
25.03.2020 01:00:00 8,7 7,8 11 6 14 7 SSW 1016,7 -
25.03.2020 00:00:00 9,5 8,4 10 5 14 8 SSW 1016,9 0,0
24.03.2020 23:00:00 10,7 9,4 6 4 9 5 S 1017,2 0,0
24.03.2020 22:00:00 12,2 11,0 3 2 23 12 E 1017,1 0,0
24.03.2020 21:00:00 12,7 11,6 15 8 25 14 E 1016,6 0,0
24.03.2020 20:00:00 12,9 11,4 9 5 24 13 E 1016,5 0,0
24.03.2020 19:00:00 13,6 11,3 9 5 28 15 E 1016,2 -
24.03.2020 18:00:00 14,2 11,0 23 12 34 19 E 1016,3 0,0
24.03.2020 17:00:00 14,1 11,1 25 13 40 22 E 1016,2 0,0
24.03.2020 16:00:00 14,5 11,2 24 13 39 21 E 1016,3 0,0
24.03.2020 15:00:00 15,0 9,6 27 14 39 21 ENE 1016,4 0,0
24.03.2020 14:00:00 15,0 10,8 19 10 27 15 ENE 1017,0 0,0
24.03.2020 13:00:00 15,5 11,3 4 2 16 8 NE 1017,6 -
24.03.2020 12:00:00 13,3 9,9 6 3 11 6 NNE 1018,6 0,0
24.03.2020 11:00:00 13,1 9,7 5 3 11 6 ENE 1018,5 0,0
24.03.2020 10:00:00 13,7 10,2 1 1 10 6 SSW 1018,7 0,0
24.03.2020 09:00:00 10,0 8,4 8 5 13 7 SSW 1019,0 0,0
24.03.2020 08:00:00 7,6 6,7 11 6 14 8 SSW 1018,6 0,0
24.03.2020 07:00:00 7,2 6,4 11 6 14 8 SSW 1018,2 -
24.03.2020 06:00:00 7,8 7,0 9 5 12 7 SSW 1018,0 0,0
24.03.2020 05:00:00 8,2 7,4 8 4 12 6 SW 1017,8 0,0
24.03.2020 04:00:00 8,3 7,4 8 4 11 6 SW 1018,0 0,0
24.03.2020 03:00:00 8,7 7,8 9 5 12 7 SW 1018,3 0,0
24.03.2020 02:00:00 9,3 8,4 8 4 10 5 SSW 1018,3 0,0
24.03.2020 01:00:00 9,9 8,8 7 4 9 5 S 1018,6 -
24.03.2020 00:00:00 10,9 9,4 6 4 13 7 S 1018,8 0,0
23.03.2020 23:00:00 11,8 10,0 5 3 17 9 E 1018,8 0,0
23.03.2020 22:00:00 12,7 10,6 8 4 27 15 E 1019,0 0,0
23.03.2020 21:00:00 12,7 10,4 18 10 32 17 ENE 1018,8 0,0
23.03.2020 20:00:00 12,6 10,3 22 12 34 18 ENE 1018,3 0,0
23.03.2020 19:00:00 12,7 10,4 16 9 29 16 E 1018,1 -
23.03.2020 18:00:00 12,8 10,3 18 10 25 13 ENE 1017,9 0,0
23.03.2020 17:00:00 12,8 10,2 16 9 25 13 ENE 1017,8 0,0
23.03.2020 16:00:00 12,7 10,0 18 10 32 17 ENE 1017,7 0,0
23.03.2020 15:00:00 13,0 10,0 18 10 30 16 ENE 1017,8 0,0
23.03.2020 14:00:00 13,2 9,7 19 10 29 16 ENE 1018,2 0,0
23.03.2020 13:00:00 13,8 10,2 18 10 28 15 ENE 1018,7 -
23.03.2020 12:00:00 13,8 9,8 13 7 20 11 ENE 1019,0 0,0
23.03.2020 11:00:00 13,8 10,0 7 4 12 6 ENE 1019,3 0,0
23.03.2020 10:00:00 12,3 10,2 1 0 6 3 ENE 1019,4 0,0
23.03.2020 09:00:00 11,9 10,2 2 1 7 4 S 1018,9 0,0
23.03.2020 08:00:00 11,7 9,9 0 0 0 0 N 1018,4 0,0
23.03.2020 07:00:00 11,6 9,7 1 1 8 5 SE 1017,9 -
23.03.2020 06:00:00 11,6 9,8 5 3 10 6 ESE 1017,5 0,0
23.03.2020 05:00:00 11,9 9,9 4 2 14 7 E 1017,1 0,0
23.03.2020 04:00:00 11,9 9,9 8 4 13 7 ENE 1016,9 0,0
23.03.2020 03:00:00 12,1 10,2 8 4 12 7 ENE 1017,1 0,0
23.03.2020 02:00:00 12,2 10,4 4 2 9 5 NE 1017,3 0,0
23.03.2020 01:00:00 12,3 10,5 5 3 9 5 NE 1017,4 -
23.03.2020 00:00:00 12,2 10,4 4 2 9 5 NE 1017,4 0,0
22.03.2020 23:00:00 12,3 10,8 6 3 12 7 ENE 1017,2 0,0
22.03.2020 22:00:00 12,5 10,9 8 4 14 7 NE 1016,9 0,0

tt = temperature
td = dewpoint
ff = wind speed
fx = gusts
dd = wind direction
ppp = reduced air pressure
rr = precipitation

Next stations